sensor_id;sensor_type;location;lat;lon;timestamp;temperature;humidity
73576;DHT22;61859;49.204;8.140;2024-03-17T00:02:05;6.40;99.40
73576;DHT22;61859;49.204;8.140;2024-03-17T00:04:31;6.30;99.30
73576;DHT22;61859;49.204;8.140;2024-03-17T00:06:57;6.20;99.20
73576;DHT22;61859;49.204;8.140;2024-03-17T00:09:23;6.20;99.00
73576;DHT22;61859;49.204;8.140;2024-03-17T00:11:49;6.00;99.10
73576;DHT22;61859;49.204;8.140;2024-03-17T00:14:15;5.80;99.30
73576;DHT22;61859;49.204;8.140;2024-03-17T00:16:41;5.90;99.40
73576;DHT22;61859;49.204;8.140;2024-03-17T00:19:07;5.90;99.40
73576;DHT22;61859;49.204;8.140;2024-03-17T00:21:32;5.80;99.40
73576;DHT22;61859;49.204;8.140;2024-03-17T00:23:58;5.60;99.50
73576;DHT22;61859;49.204;8.140;2024-03-17T00:26:23;5.60;99.60
73576;DHT22;61859;49.204;8.140;2024-03-17T00:28:49;5.40;99.70
73576;DHT22;61859;49.204;8.140;2024-03-17T00:31:16;5.60;99.70
73576;DHT22;61859;49.204;8.140;2024-03-17T00:33:42;5.40;99.90
73576;DHT22;61859;49.204;8.140;2024-03-17T00:36:08;5.40;99.90
73576;DHT22;61859;49.204;8.140;2024-03-17T00:38:33;5.60;99.90
73576;DHT22;61859;49.204;8.140;2024-03-17T00:40:59;5.60;99.90
73576;DHT22;61859;49.204;8.140;2024-03-17T00:43:25;5.60;99.90
73576;DHT22;61859;49.204;8.140;2024-03-17T00:45:54;5.50;99.90
73576;DHT22;61859;49.204;8.140;2024-03-17T00:48:19;5.50;99.90
73576;DHT22;61859;49.204;8.140;2024-03-17T00:50:45;5.50;99.90
73576;DHT22;61859;49.204;8.140;2024-03-17T00:53:11;5.60;99.90
73576;DHT22;61859;49.204;8.140;2024-03-17T00:55:37;5.70;99.90
73576;DHT22;61859;49.204;8.140;2024-03-17T00:58:03;5.70;99.90
73576;DHT22;61859;49.204;8.140;2024-03-17T01:00:29;5.60;99.90
73576;DHT22;61859;49.204;8.140;2024-03-17T01:02:55;5.60;99.90
73576;DHT22;61859;49.204;8.140;2024-03-17T01:05:21;5.60;99.90
73576;DHT22;61859;49.204;8.140;2024-03-17T01:07:47;5.70;99.90
73576;DHT22;61859;49.204;8.140;2024-03-17T01:10:14;5.70;99.90
73576;DHT22;61859;49.204;8.140;2024-03-17T01:12:39;5.60;99.90
73576;DHT22;61859;49.204;8.140;2024-03-17T01:15:08;5.40;99.90
73576;DHT22;61859;49.204;8.140;2024-03-17T01:17:34;5.40;99.90
73576;DHT22;61859;49.204;8.140;2024-03-17T01:20:00;5.40;99.90
73576;DHT22;61859;49.204;8.140;2024-03-17T01:22:25;5.50;99.90
73576;DHT22;61859;49.204;8.140;2024-03-17T01:24:51;5.40;99.90
73576;DHT22;61859;49.204;8.140;2024-03-17T01:27:16;5.40;99.90
73576;DHT22;61859;49.204;8.140;2024-03-17T01:29:45;5.30;99.90
73576;DHT22;61859;49.204;8.140;2024-03-17T01:32:11;5.40;99.90
73576;DHT22;61859;49.204;8.140;2024-03-17T01:34:37;5.20;99.90
73576;DHT22;61859;49.204;8.140;2024-03-17T01:37:03;5.20;99.90
73576;DHT22;61859;49.204;8.140;2024-03-17T01:39:29;5.30;99.90
73576;DHT22;61859;49.204;8.140;2024-03-17T01:41:55;5.30;99.90
73576;DHT22;61859;49.204;8.140;2024-03-17T01:44:25;5.40;99.90
73576;DHT22;61859;49.204;8.140;2024-03-17T01:46:51;5.20;99.90
73576;DHT22;61859;49.204;8.140;2024-03-17T01:49:17;5.40;99.90
73576;DHT22;61859;49.204;8.140;2024-03-17T01:51:47;5.30;99.90
73576;DHT22;61859;49.204;8.140;2024-03-17T01:54:13;5.30;99.90
73576;DHT22;61859;49.204;8.140;2024-03-17T01:56:40;5.30;99.90
73576;DHT22;61859;49.204;8.140;2024-03-17T01:59:07;5.30;99.90
73576;DHT22;61859;49.204;8.140;2024-03-17T02:01:33;5.40;99.90
73576;DHT22;61859;49.204;8.140;2024-03-17T02:03:59;5.20;99.90
73576;DHT22;61859;49.204;8.140;2024-03-17T02:06:25;5.20;99.90
73576;DHT22;61859;49.204;8.140;2024-03-17T02:08:52;5.00;99.90
73576;DHT22;61859;49.204;8.140;2024-03-17T02:11:32;5.20;99.90
73576;DHT22;61859;49.204;8.140;2024-03-17T02:13:59;5.00;99.90
73576;DHT22;61859;49.204;8.140;2024-03-17T02:16:25;5.00;99.90
73576;DHT22;61859;49.204;8.140;2024-03-17T02:18:54;5.10;99.90
73576;DHT22;61859;49.204;8.140;2024-03-17T02:21:21;4.90;99.90
73576;DHT22;61859;49.204;8.140;2024-03-17T02:23:51;4.80;99.90
73576;DHT22;61859;49.204;8.140;2024-03-17T02:26:17;5.00;99.90
73576;DHT22;61859;49.204;8.140;2024-03-17T02:28:45;4.80;99.90
73576;DHT22;61859;49.204;8.140;2024-03-17T02:31:12;4.60;99.90
73576;DHT22;61859;49.204;8.140;2024-03-17T02:33:39;4.70;99.90
73576;DHT22;61859;49.204;8.140;2024-03-17T02:36:05;4.60;99.90
73576;DHT22;61859;49.204;8.140;2024-03-17T02:38:33;4.80;99.90
73576;DHT22;61859;49.204;8.140;2024-03-17T02:41:18;4.70;99.90
73576;DHT22;61859;49.204;8.140;2024-03-17T02:43:44;4.60;99.90
73576;DHT22;61859;49.204;8.140;2024-03-17T02:46:14;4.60;99.90
73576;DHT22;61859;49.204;8.140;2024-03-17T02:48:41;4.50;99.90
73576;DHT22;61859;49.204;8.140;2024-03-17T02:51:17;4.50;99.90
73576;DHT22;61859;49.204;8.140;2024-03-17T02:53:44;4.50;99.90
73576;DHT22;61859;49.204;8.140;2024-03-17T02:56:12;4.50;99.90
73576;DHT22;61859;49.204;8.140;2024-03-17T02:58:40;4.40;99.90
73576;DHT22;61859;49.204;8.140;2024-03-17T03:01:07;4.40;99.90
73576;DHT22;61859;49.204;8.140;2024-03-17T03:03:33;4.30;99.90
73576;DHT22;61859;49.204;8.140;2024-03-17T03:05:59;4.40;99.90
73576;DHT22;61859;49.204;8.140;2024-03-17T03:08:32;4.50;99.90
73576;DHT22;61859;49.204;8.140;2024-03-17T03:10:59;4.40;99.90
73576;DHT22;61859;49.204;8.140;2024-03-17T03:13:24;4.30;99.90
73576;DHT22;61859;49.204;8.140;2024-03-17T03:15:50;4.40;99.90
73576;DHT22;61859;49.204;8.140;2024-03-17T03:18:16;4.30;99.90
73576;DHT22;61859;49.204;8.140;2024-03-17T03:20:41;4.40;99.90
73576;DHT22;61859;49.204;8.140;2024-03-17T03:23:07;4.40;99.90
73576;DHT22;61859;49.204;8.140;2024-03-17T03:25:32;4.30;99.90
73576;DHT22;61859;49.204;8.140;2024-03-17T03:27:58;4.10;99.90
73576;DHT22;61859;49.204;8.140;2024-03-17T03:30:24;4.10;99.90
73576;DHT22;61859;49.204;8.140;2024-03-17T03:32:50;4.20;99.90
73576;DHT22;61859;49.204;8.140;2024-03-17T03:35:15;4.10;99.90
73576;DHT22;61859;49.204;8.140;2024-03-17T03:37:41;4.10;99.90
73576;DHT22;61859;49.204;8.140;2024-03-17T03:40:08;4.20;99.90
73576;DHT22;61859;49.204;8.140;2024-03-17T03:42:45;4.30;99.90
73576;DHT22;61859;49.204;8.140;2024-03-17T03:45:11;4.30;99.90
73576;DHT22;61859;49.204;8.140;2024-03-17T03:47:40;4.20;99.90
73576;DHT22;61859;49.204;8.140;2024-03-17T03:50:20;4.20;99.90
73576;DHT22;61859;49.204;8.140;2024-03-17T03:52:46;4.30;99.90
73576;DHT22;61859;49.204;8.140;2024-03-17T03:55:12;4.20;99.90
73576;DHT22;61859;49.204;8.140;2024-03-17T03:57:41;4.10;99.90
73576;DHT22;61859;49.204;8.140;2024-03-17T04:00:08;4.20;99.90
73576;DHT22;61859;49.204;8.140;2024-03-17T04:02:39;4.00;99.90
73576;DHT22;61859;49.204;8.140;2024-03-17T04:05:05;4.20;99.90
73576;DHT22;61859;49.204;8.140;2024-03-17T04:07:31;4.20;99.90
73576;DHT22;61859;49.204;8.140;2024-03-17T04:09:57;4.10;99.90
73576;DHT22;61859;49.204;8.140;2024-03-17T04:12:24;4.20;99.90
73576;DHT22;61859;49.204;8.140;2024-03-17T04:14:50;4.10;99.90
73576;DHT22;61859;49.204;8.140;2024-03-17T04:17:21;4.20;99.90
73576;DHT22;61859;49.204;8.140;2024-03-17T04:19:48;3.90;99.90
73576;DHT22;61859;49.204;8.140;2024-03-17T04:22:14;4.10;99.90
73576;DHT22;61859;49.204;8.140;2024-03-17T04:24:40;4.20;99.90
73576;DHT22;61859;49.204;8.140;2024-03-17T04:27:06;4.20;99.90
73576;DHT22;61859;49.204;8.140;2024-03-17T04:29:31;4.10;99.90
73576;DHT22;61859;49.204;8.140;2024-03-17T04:31:57;4.10;99.90
73576;DHT22;61859;49.204;8.140;2024-03-17T04:34:22;4.30;99.90
73576;DHT22;61859;49.204;8.140;2024-03-17T04:36:48;4.20;99.90
73576;DHT22;61859;49.204;8.140;2024-03-17T04:39:13;4.10;99.90
73576;DHT22;61859;49.204;8.140;2024-03-17T04:41:39;4.00;99.90
73576;DHT22;61859;49.204;8.140;2024-03-17T04:44:06;3.80;99.90
73576;DHT22;61859;49.204;8.140;2024-03-17T04:46:32;4.00;99.90
73576;DHT22;61859;49.204;8.140;2024-03-17T04:48:58;3.90;99.90
73576;DHT22;61859;49.204;8.140;2024-03-17T04:51:23;4.00;99.90
73576;DHT22;61859;49.204;8.140;2024-03-17T04:53:49;3.90;99.90
73576;DHT22;61859;49.204;8.140;2024-03-17T04:56:14;3.90;99.90
73576;DHT22;61859;49.204;8.140;2024-03-17T04:58:40;3.90;99.90
73576;DHT22;61859;49.204;8.140;2024-03-17T05:01:09;3.90;99.90
73576;DHT22;61859;49.204;8.140;2024-03-17T05:03:35;3.90;99.90
73576;DHT22;61859;49.204;8.140;2024-03-17T05:06:02;4.10;99.90
73576;DHT22;61859;49.204;8.140;2024-03-17T05:08:28;4.20;99.90
73576;DHT22;61859;49.204;8.140;2024-03-17T05:13:23;4.10;99.90
73576;DHT22;61859;49.204;8.140;2024-03-17T05:15:49;4.20;99.90
73576;DHT22;61859;49.204;8.140;2024-03-17T05:18:14;4.20;99.90
73576;DHT22;61859;49.204;8.140;2024-03-17T05:20:40;4.30;99.90
73576;DHT22;61859;49.204;8.140;2024-03-17T05:23:05;4.20;99.90
73576;DHT22;61859;49.204;8.140;2024-03-17T05:25:31;4.40;99.90
73576;DHT22;61859;49.204;8.140;2024-03-17T05:28:02;4.40;99.90
73576;DHT22;61859;49.204;8.140;2024-03-17T05:30:27;4.30;99.90
73576;DHT22;61859;49.204;8.140;2024-03-17T05:32:53;4.40;99.90
73576;DHT22;61859;49.204;8.140;2024-03-17T05:35:18;4.40;99.90
73576;DHT22;61859;49.204;8.140;2024-03-17T05:37:44;4.40;99.90
73576;DHT22;61859;49.204;8.140;2024-03-17T05:40:10;4.70;99.90
73576;DHT22;61859;49.204;8.140;2024-03-17T05:42:41;4.70;99.90
73576;DHT22;61859;49.204;8.140;2024-03-17T05:45:08;4.70;99.90
73576;DHT22;61859;49.204;8.140;2024-03-17T05:47:39;5.00;99.90
73576;DHT22;61859;49.204;8.140;2024-03-17T05:50:06;5.00;99.90
73576;DHT22;61859;49.204;8.140;2024-03-17T05:52:32;5.00;99.90
73576;DHT22;61859;49.204;8.140;2024-03-17T05:54:58;5.10;99.90
73576;DHT22;61859;49.204;8.140;2024-03-17T05:57:23;5.10;99.90
73576;DHT22;61859;49.204;8.140;2024-03-17T05:59:49;5.10;99.90
73576;DHT22;61859;49.204;8.140;2024-03-17T06:02:15;5.20;99.90
73576;DHT22;61859;49.204;8.140;2024-03-17T06:04:41;5.40;99.90
73576;DHT22;61859;49.204;8.140;2024-03-17T06:07:07;5.40;99.90
73576;DHT22;61859;49.204;8.140;2024-03-17T06:09:32;5.50;99.90
73576;DHT22;61859;49.204;8.140;2024-03-17T06:11:58;5.60;99.90
73576;DHT22;61859;49.204;8.140;2024-03-17T06:14:23;5.60;99.90
73576;DHT22;61859;49.204;8.140;2024-03-17T06:16:49;5.80;99.90
73576;DHT22;61859;49.204;8.140;2024-03-17T06:19:14;5.90;99.90
73576;DHT22;61859;49.204;8.140;2024-03-17T06:21:41;6.00;99.90
73576;DHT22;61859;49.204;8.140;2024-03-17T06:24:06;6.20;99.90
73576;DHT22;61859;49.204;8.140;2024-03-17T06:26:32;6.20;99.90
73576;DHT22;61859;49.204;8.140;2024-03-17T06:29:00;6.20;99.90
73576;DHT22;61859;49.204;8.140;2024-03-17T06:31:25;6.20;99.90
73576;DHT22;61859;49.204;8.140;2024-03-17T06:33:51;6.40;99.90
73576;DHT22;61859;49.204;8.140;2024-03-17T06:36:17;6.40;99.90
73576;DHT22;61859;49.204;8.140;2024-03-17T06:38:43;6.60;99.90
73576;DHT22;61859;49.204;8.140;2024-03-17T06:41:12;7.00;99.90
73576;DHT22;61859;49.204;8.140;2024-03-17T06:43:40;7.00;99.90
73576;DHT22;61859;49.204;8.140;2024-03-17T06:46:07;7.20;99.90
73576;DHT22;61859;49.204;8.140;2024-03-17T06:48:33;7.40;99.90
73576;DHT22;61859;49.204;8.140;2024-03-17T06:50:59;7.60;99.90
73576;DHT22;61859;49.204;8.140;2024-03-17T06:53:25;7.80;99.10
73576;DHT22;61859;49.204;8.140;2024-03-17T06:55:57;7.90;99.20
73576;DHT22;61859;49.204;8.140;2024-03-17T06:58:23;8.30;98.20
73576;DHT22;61859;49.204;8.140;2024-03-17T07:00:56;8.40;97.00
73576;DHT22;61859;49.204;8.140;2024-03-17T07:03:30;8.60;95.50
73576;DHT22;61859;49.204;8.140;2024-03-17T07:06:00;8.70;93.90
73576;DHT22;61859;49.204;8.140;2024-03-17T07:08:31;8.90;92.20
73576;DHT22;61859;49.204;8.140;2024-03-17T07:11:01;9.00;91.40
73576;DHT22;61859;49.204;8.140;2024-03-17T07:13:32;9.10;91.90
73576;DHT22;61859;49.204;8.140;2024-03-17T07:15:59;9.30;91.80
73576;DHT22;61859;49.204;8.140;2024-03-17T07:18:28;9.40;91.00
73576;DHT22;61859;49.204;8.140;2024-03-17T07:21:02;9.50;87.80
73576;DHT22;61859;49.204;8.140;2024-03-17T07:23:29;9.60;87.10
73576;DHT22;61859;49.204;8.140;2024-03-17T07:25:59;9.60;86.30
73576;DHT22;61859;49.204;8.140;2024-03-17T07:28:25;9.60;86.70
73576;DHT22;61859;49.204;8.140;2024-03-17T07:30:55;9.70;87.30
73576;DHT22;61859;49.204;8.140;2024-03-17T07:33:21;9.80;85.50
73576;DHT22;61859;49.204;8.140;2024-03-17T07:35:51;9.70;84.60
73576;DHT22;61859;49.204;8.140;2024-03-17T07:38:17;9.70;84.60
73576;DHT22;61859;49.204;8.140;2024-03-17T07:40:44;9.50;85.40
73576;DHT22;61859;49.204;8.140;2024-03-17T07:43:10;9.60;85.80
73576;DHT22;61859;49.204;8.140;2024-03-17T07:45:35;9.60;85.80
73576;DHT22;61859;49.204;8.140;2024-03-17T07:48:01;9.70;85.40
73576;DHT22;61859;49.204;8.140;2024-03-17T07:50:26;9.70;85.70
73576;DHT22;61859;49.204;8.140;2024-03-17T07:52:52;9.80;85.60
73576;DHT22;61859;49.204;8.140;2024-03-17T07:55:18;9.90;85.00
73576;DHT22;61859;49.204;8.140;2024-03-17T07:57:43;9.80;84.70
73576;DHT22;61859;49.204;8.140;2024-03-17T08:00:09;9.90;84.60
73576;DHT22;61859;49.204;8.140;2024-03-17T08:02:44;9.90;84.20
73576;DHT22;61859;49.204;8.140;2024-03-17T08:05:10;10.00;84.70
73576;DHT22;61859;49.204;8.140;2024-03-17T08:07:36;10.10;84.90
73576;DHT22;61859;49.204;8.140;2024-03-17T08:10:01;10.20;84.70
73576;DHT22;61859;49.204;8.140;2024-03-17T08:12:29;10.40;84.10
73576;DHT22;61859;49.204;8.140;2024-03-17T08:14:55;10.50;84.30
73576;DHT22;61859;49.204;8.140;2024-03-17T08:17:20;10.70;83.70
73576;DHT22;61859;49.204;8.140;2024-03-17T08:19:46;10.80;83.40
73576;DHT22;61859;49.204;8.140;2024-03-17T08:22:12;10.90;83.10
73576;DHT22;61859;49.204;8.140;2024-03-17T08:24:37;11.10;82.90
73576;DHT22;61859;49.204;8.140;2024-03-17T08:27:03;11.20;82.20
73576;DHT22;61859;49.204;8.140;2024-03-17T08:29:29;11.40;81.40
73576;DHT22;61859;49.204;8.140;2024-03-17T08:31:54;11.50;80.70
73576;DHT22;61859;49.204;8.140;2024-03-17T08:34:20;11.60;81.20
73576;DHT22;61859;49.204;8.140;2024-03-17T08:36:45;11.60;80.00
73576;DHT22;61859;49.204;8.140;2024-03-17T08:39:11;11.60;79.10
73576;DHT22;61859;49.204;8.140;2024-03-17T08:41:37;11.40;78.50
73576;DHT22;61859;49.204;8.140;2024-03-17T08:44:02;11.20;79.60
73576;DHT22;61859;49.204;8.140;2024-03-17T08:46:28;11.20;80.00
73576;DHT22;61859;49.204;8.140;2024-03-17T08:48:53;11.30;80.10
73576;DHT22;61859;49.204;8.140;2024-03-17T08:51:19;11.40;79.90
73576;DHT22;61859;49.204;8.140;2024-03-17T08:53:44;11.40;80.20
73576;DHT22;61859;49.204;8.140;2024-03-17T08:56:10;11.60;79.80
73576;DHT22;61859;49.204;8.140;2024-03-17T08:58:36;11.80;79.80
73576;DHT22;61859;49.204;8.140;2024-03-17T09:01:08;12.20;79.20
73576;DHT22;61859;49.204;8.140;2024-03-17T09:03:37;12.60;79.10
73576;DHT22;61859;49.204;8.140;2024-03-17T09:06:02;12.90;76.10
73576;DHT22;61859;49.204;8.140;2024-03-17T09:08:28;13.20;75.90
73576;DHT22;61859;49.204;8.140;2024-03-17T09:10:54;13.40;75.20
73576;DHT22;61859;49.204;8.140;2024-03-17T09:13:21;13.60;73.80
73576;DHT22;61859;49.204;8.140;2024-03-17T09:15:59;13.60;74.20
73576;DHT22;61859;49.204;8.140;2024-03-17T09:18:34;13.90;74.30
73576;DHT22;61859;49.204;8.140;2024-03-17T09:21:02;14.20;73.80
73576;DHT22;61859;49.204;8.140;2024-03-17T09:23:28;14.30;71.70
73576;DHT22;61859;49.204;8.140;2024-03-17T09:26:05;14.50;72.70
73576;DHT22;61859;49.204;8.140;2024-03-17T09:28:32;14.40;71.40
73576;DHT22;61859;49.204;8.140;2024-03-17T09:30:59;14.30;71.90
73576;DHT22;61859;49.204;8.140;2024-03-17T09:33:26;14.30;72.30
73576;DHT22;61859;49.204;8.140;2024-03-17T09:38:23;14.30;73.80
73576;DHT22;61859;49.204;8.140;2024-03-17T09:40:49;14.20;73.70
73576;DHT22;61859;49.204;8.140;2024-03-17T09:43:21;14.20;73.40
73576;DHT22;61859;49.204;8.140;2024-03-17T09:45:47;14.40;73.30
73576;DHT22;61859;49.204;8.140;2024-03-17T09:48:15;14.40;73.00
73576;DHT22;61859;49.204;8.140;2024-03-17T09:50:49;14.40;72.80
73576;DHT22;61859;49.204;8.140;2024-03-17T09:53:16;14.60;72.70
73576;DHT22;61859;49.204;8.140;2024-03-17T09:55:43;14.70;71.20
73576;DHT22;61859;49.204;8.140;2024-03-17T09:58:15;14.70;71.90
73576;DHT22;61859;49.204;8.140;2024-03-17T10:00:42;14.80;70.80
73576;DHT22;61859;49.204;8.140;2024-03-17T10:03:07;15.00;70.50
73576;DHT22;61859;49.204;8.140;2024-03-17T10:05:33;15.30;71.00
73576;DHT22;61859;49.204;8.140;2024-03-17T10:07:59;15.60;69.20
73576;DHT22;61859;49.204;8.140;2024-03-17T10:10:25;16.00;67.80
73576;DHT22;61859;49.204;8.140;2024-03-17T10:12:51;16.50;66.70
73576;DHT22;61859;49.204;8.140;2024-03-17T10:15:18;16.80;65.60
73576;DHT22;61859;49.204;8.140;2024-03-17T10:17:44;17.00;65.80
73576;DHT22;61859;49.204;8.140;2024-03-17T10:20:13;17.30;63.10
73576;DHT22;61859;49.204;8.140;2024-03-17T10:23:03;17.50;63.20
73576;DHT22;61859;49.204;8.140;2024-03-17T10:25:33;17.70;62.30
73576;DHT22;61859;49.204;8.140;2024-03-17T10:28:00;17.90;60.30
73576;DHT22;61859;49.204;8.140;2024-03-17T10:30:27;17.60;61.20
73576;DHT22;61859;49.204;8.140;2024-03-17T10:33:02;17.80;61.10
73576;DHT22;61859;49.204;8.140;2024-03-17T10:35:36;18.00;61.40
73576;DHT22;61859;49.204;8.140;2024-03-17T10:38:06;18.50;62.10
73576;DHT22;61859;49.204;8.140;2024-03-17T10:40:33;18.80;58.80
73576;DHT22;61859;49.204;8.140;2024-03-17T10:43:01;19.00;58.60
73576;DHT22;61859;49.204;8.140;2024-03-17T10:45:28;19.30;58.40
73576;DHT22;61859;49.204;8.140;2024-03-17T10:48:01;19.50;57.50
73576;DHT22;61859;49.204;8.140;2024-03-17T10:50:30;19.40;57.10
73576;DHT22;61859;49.204;8.140;2024-03-17T10:53:01;19.50;57.10
73576;DHT22;61859;49.204;8.140;2024-03-17T10:55:32;19.50;55.90
73576;DHT22;61859;49.204;8.140;2024-03-17T10:57:59;19.50;56.00
73576;DHT22;61859;49.204;8.140;2024-03-17T11:00:26;19.70;55.80
73576;DHT22;61859;49.204;8.140;2024-03-17T11:02:55;19.70;56.00
73576;DHT22;61859;49.204;8.140;2024-03-17T11:05:25;19.70;55.70
73576;DHT22;61859;49.204;8.140;2024-03-17T11:07:55;19.80;56.80
73576;DHT22;61859;49.204;8.140;2024-03-17T11:10:25;19.80;55.40
73576;DHT22;61859;49.204;8.140;2024-03-17T11:12:54;19.80;55.20
73576;DHT22;61859;49.204;8.140;2024-03-17T11:20:35;21.10;52.80
73576;DHT22;61859;49.204;8.140;2024-03-17T11:23:02;20.80;52.80
73576;DHT22;61859;49.204;8.140;2024-03-17T11:28:07;20.30;54.70
73576;DHT22;61859;49.204;8.140;2024-03-17T11:38:59;18.90;56.50
73576;DHT22;61859;49.204;8.140;2024-03-17T11:41:38;18.50;58.10
73576;DHT22;61859;49.204;8.140;2024-03-17T11:46:59;18.00;59.20
73576;DHT22;61859;49.204;8.140;2024-03-17T11:52:00;17.90;59.40
73576;DHT22;61859;49.204;8.140;2024-03-17T11:54:27;17.90;59.70
73576;DHT22;61859;49.204;8.140;2024-03-17T11:56:55;17.80;60.30
73576;DHT22;61859;49.204;8.140;2024-03-17T11:59:21;17.70;59.40
73576;DHT22;61859;49.204;8.140;2024-03-17T12:01:49;17.70;58.00
73576;DHT22;61859;49.204;8.140;2024-03-17T12:04:15;17.60;58.70
73576;DHT22;61859;49.204;8.140;2024-03-17T12:06:49;17.60;57.70
73576;DHT22;61859;49.204;8.140;2024-03-17T12:09:26;17.80;57.30
73576;DHT22;61859;49.204;8.140;2024-03-17T12:14:26;18.20;53.80
73576;DHT22;61859;49.204;8.140;2024-03-17T12:17:00;18.50;54.00
73576;DHT22;61859;49.204;8.140;2024-03-17T12:19:27;18.80;53.10
73576;DHT22;61859;49.204;8.140;2024-03-17T12:21:57;19.00;52.80
73576;DHT22;61859;49.204;8.140;2024-03-17T12:24:25;19.40;52.30
73576;DHT22;61859;49.204;8.140;2024-03-17T12:26:52;19.80;50.80
73576;DHT22;61859;49.204;8.140;2024-03-17T12:31:53;20.10;50.90
73576;DHT22;61859;49.204;8.140;2024-03-17T12:34:19;19.90;51.60
73576;DHT22;61859;49.204;8.140;2024-03-17T12:36:46;19.80;51.40
73576;DHT22;61859;49.204;8.140;2024-03-17T12:39:27;19.50;51.90
73576;DHT22;61859;49.204;8.140;2024-03-17T12:44:55;19.20;53.70
73576;DHT22;61859;49.204;8.140;2024-03-17T12:47:25;19.10;54.60
73576;DHT22;61859;49.204;8.140;2024-03-17T12:49:53;18.70;55.20
73576;DHT22;61859;49.204;8.140;2024-03-17T12:52:29;18.60;55.50
73576;DHT22;61859;49.204;8.140;2024-03-17T12:55:02;18.50;55.70
73576;DHT22;61859;49.204;8.140;2024-03-17T12:57:48;18.50;56.20
73576;DHT22;61859;49.204;8.140;2024-03-17T13:00:33;18.60;55.10
73576;DHT22;61859;49.204;8.140;2024-03-17T13:03:01;18.70;55.30
73576;DHT22;61859;49.204;8.140;2024-03-17T13:05:27;18.90;56.20
73576;DHT22;61859;49.204;8.140;2024-03-17T13:07:53;18.90;56.40
73576;DHT22;61859;49.204;8.140;2024-03-17T13:10:22;18.90;55.80
73576;DHT22;61859;49.204;8.140;2024-03-17T13:12:57;19.00;55.40
73576;DHT22;61859;49.204;8.140;2024-03-17T13:15:23;18.90;55.30
73576;DHT22;61859;49.204;8.140;2024-03-17T13:17:48;18.80;55.20
73576;DHT22;61859;49.204;8.140;2024-03-17T13:20:17;18.60;55.50
73576;DHT22;61859;49.204;8.140;2024-03-17T13:22:46;18.50;58.10
73576;DHT22;61859;49.204;8.140;2024-03-17T13:25:28;18.40;56.20
73576;DHT22;61859;49.204;8.140;2024-03-17T13:27:59;18.40;56.90
73576;DHT22;61859;49.204;8.140;2024-03-17T13:30:25;18.50;57.10
73576;DHT22;61859;49.204;8.140;2024-03-17T13:32:52;18.60;56.80
73576;DHT22;61859;49.204;8.140;2024-03-17T13:35:25;18.50;56.70
73576;DHT22;61859;49.204;8.140;2024-03-17T13:37:51;18.60;56.40
73576;DHT22;61859;49.204;8.140;2024-03-17T13:40:18;18.90;57.00
73576;DHT22;61859;49.204;8.140;2024-03-17T13:42:49;19.20;55.80
73576;DHT22;61859;49.204;8.140;2024-03-17T13:45:16;19.60;54.80
73576;DHT22;61859;49.204;8.140;2024-03-17T13:47:46;20.00;54.60
73576;DHT22;61859;49.204;8.140;2024-03-17T13:50:12;20.40;53.20
73576;DHT22;61859;49.204;8.140;2024-03-17T13:52:39;20.60;52.40
73576;DHT22;61859;49.204;8.140;2024-03-17T13:55:06;20.80;52.40
73576;DHT22;61859;49.204;8.140;2024-03-17T13:57:32;21.20;51.40
73576;DHT22;61859;49.204;8.140;2024-03-17T13:59:58;21.70;49.50
73576;DHT22;61859;49.204;8.140;2024-03-17T14:02:24;22.10;48.40
73576;DHT22;61859;49.204;8.140;2024-03-17T14:04:49;22.50;48.80
73576;DHT22;61859;49.204;8.140;2024-03-17T14:07:15;22.70;47.30
73576;DHT22;61859;49.204;8.140;2024-03-17T14:09:41;22.60;46.80
73576;DHT22;61859;49.204;8.140;2024-03-17T14:12:08;22.60;47.70
73576;DHT22;61859;49.204;8.140;2024-03-17T14:14:33;22.30;47.00
73576;DHT22;61859;49.204;8.140;2024-03-17T14:16:59;22.10;47.60
73576;DHT22;61859;49.204;8.140;2024-03-17T14:19:25;21.90;48.90
73576;DHT22;61859;49.204;8.140;2024-03-17T14:21:50;21.80;48.80
73576;DHT22;61859;49.204;8.140;2024-03-17T14:24:16;22.30;48.50
73576;DHT22;61859;49.204;8.140;2024-03-17T14:26:42;22.90;46.70
73576;DHT22;61859;49.204;8.140;2024-03-17T14:29:08;23.60;46.00
73576;DHT22;61859;49.204;8.140;2024-03-17T14:31:33;24.00;45.40
73576;DHT22;61859;49.204;8.140;2024-03-17T14:34:02;24.30;45.20
73576;DHT22;61859;49.204;8.140;2024-03-17T14:36:30;24.70;43.70
73576;DHT22;61859;49.204;8.140;2024-03-17T14:38:56;24.70;43.10
73576;DHT22;61859;49.204;8.140;2024-03-17T14:41:21;24.90;42.90
73576;DHT22;61859;49.204;8.140;2024-03-17T14:43:47;25.30;42.50
73576;DHT22;61859;49.204;8.140;2024-03-17T14:46:13;25.70;42.00
73576;DHT22;61859;49.204;8.140;2024-03-17T14:48:39;25.00;43.00
73576;DHT22;61859;49.204;8.140;2024-03-17T14:51:05;24.10;43.80
73576;DHT22;61859;49.204;8.140;2024-03-17T14:53:31;23.00;45.20
73576;DHT22;61859;49.204;8.140;2024-03-17T14:55:56;22.10;47.20
73576;DHT22;61859;49.204;8.140;2024-03-17T14:58:22;21.40;49.00
73576;DHT22;61859;49.204;8.140;2024-03-17T15:00:47;20.70;50.70
73576;DHT22;61859;49.204;8.140;2024-03-17T15:03:13;20.20;51.50
73576;DHT22;61859;49.204;8.140;2024-03-17T15:05:39;19.80;52.40
73576;DHT22;61859;49.204;8.140;2024-03-17T15:08:05;19.40;53.10
73576;DHT22;61859;49.204;8.140;2024-03-17T15:10:30;19.00;54.10
73576;DHT22;61859;49.204;8.140;2024-03-17T15:12:56;18.80;54.60
73576;DHT22;61859;49.204;8.140;2024-03-17T15:15:22;18.50;55.30
73576;DHT22;61859;49.204;8.140;2024-03-17T15:17:47;18.50;55.60
73576;DHT22;61859;49.204;8.140;2024-03-17T15:20:16;18.40;55.30
73576;DHT22;61859;49.204;8.140;2024-03-17T15:22:51;18.20;55.60
73576;DHT22;61859;49.204;8.140;2024-03-17T15:25:17;17.80;56.90
73576;DHT22;61859;49.204;8.140;2024-03-17T15:27:44;17.50;58.40
73576;DHT22;61859;49.204;8.140;2024-03-17T15:30:16;17.20;59.70
73576;DHT22;61859;49.204;8.140;2024-03-17T15:32:47;16.90;61.10
73576;DHT22;61859;49.204;8.140;2024-03-17T15:35:14;16.50;61.60
73576;DHT22;61859;49.204;8.140;2024-03-17T15:37:40;16.40;61.90
73576;DHT22;61859;49.204;8.140;2024-03-17T15:40:07;16.20;62.60
73576;DHT22;61859;49.204;8.140;2024-03-17T15:42:33;16.10;62.70
73576;DHT22;61859;49.204;8.140;2024-03-17T15:44:59;15.90;63.40
73576;DHT22;61859;49.204;8.140;2024-03-17T15:47:25;15.70;64.40
73576;DHT22;61859;49.204;8.140;2024-03-17T15:49:50;15.60;64.80
73576;DHT22;61859;49.204;8.140;2024-03-17T15:52:16;15.40;65.90
73576;DHT22;61859;49.204;8.140;2024-03-17T15:54:41;15.20;66.80
73576;DHT22;61859;49.204;8.140;2024-03-17T15:57:07;15.20;67.70
73576;DHT22;61859;49.204;8.140;2024-03-17T15:59:33;15.10;68.10
73576;DHT22;61859;49.204;8.140;2024-03-17T16:02:00;15.00;68.60
73576;DHT22;61859;49.204;8.140;2024-03-17T16:04:26;15.00;69.40
73576;DHT22;61859;49.204;8.140;2024-03-17T16:06:53;15.00;69.30
73576;DHT22;61859;49.204;8.140;2024-03-17T16:09:20;15.00;69.20
73576;DHT22;61859;49.204;8.140;2024-03-17T16:11:46;15.00;69.30
73576;DHT22;61859;49.204;8.140;2024-03-17T16:14:13;15.00;69.70